Londyn, United Kingdom

09:21 BST dnia 26-lipiec-2016 (GMT +0100)
Heathrow | | Change Station

Wysokość 79 ft 51.48 °N, 0.46 °W | Updated 31 minutes ago

Clear
pogodnie
63 ° F
Odczuwalna 63 ° F
Płn.
6
Wiatr zmienny Wiatr od zachodni

Dziś
Wysoka -- | Niska -- ° F
--% Prawdop. opadów
Wczoraj
Wysoka -- | Niska -- ° F
Precip. -- cali
Ciśnienie 30.18 cali
Widzialność 6.2 mil
chmury
Punkt rosy 55 ° F
Wilgotność 77%
Opady deszczu 0.00 cali
grubość pokrywy śnieżnej Niedostępne.
5:17 AM 8:58 PM
Zmniejszający się Księżyc, 57% visible
METAR EGLL 260750Z AUTO 28005KT 9999 NCD 17/13 Q1022 NOSIG
Ciśnienie 30.18 cali
Widzialność 6.2 mil
chmury
Punkt rosy 55 ° F
Wilgotność 77%
Opady deszczu 0.00 cali
grubość pokrywy śnieżnej Niedostępne.
5:17 AM 8:58 PM
Zmniejszający się Księżyc, 57% visible
METAR EGLL 260750Z AUTO 28005KT 9999 NCD 17/13 Q1022 NOSIG

10-Day Weather Forecast

×

Almanac

Astronomia

Jul. 26, 2016 Wschód Zachów
Aktualny czas
Zmierzch cywilny
Zmierzch żeglarski
świt/zmierzch astronomiczny
Księżyc
całkowite oświetlenie
Długość dnia
Tomorrow will be .
, % of the Moon is Illuminated

Dzisiejsze ekstrema

Country Highs Country Lows

Community

WunderPhotos

Upload Photos

1,927,556 zdjęcia zostały przesłane!

WunderBlog® & News

Nearby

Jakość powietrza

  Jakość powietrza czynnik AQ Zanieczyszczenie
Not available.

Głębokość pokrywy śnieżnej

Station Depth n.p.m.

Aktywność sejsmiczna

Miejscowość Distance Mag. Time & Date
Minimum magnitude displayed is 2.5.

Temperatury wody na wybrzeżu

Miejsce Temperatura

Stations

Najbliższa stacja pogodowa

Lokalizacja stacji Temp. czynnik chłodzący wiatru Punkt rosy Wilgotność Wiatr Precip. Wysokość Uaktualniono Typ